Aeroporto :
LOGIN :

Iscrizione | Disclaimer

   EN    FR    IT 

 










Sommario :    VFR   VFR Marginale   IFR   IFR Intensivo   IFR Molto Intensivo
Visibilità : 
Base nubi : 
>= 8 km
>= 3000ft
5 / 8 km
1000 / 3000 ft
1500m / 5 km
500 / 1000 ft
800 / 1500m
200 / 500 ft
< 800m
< 200 ft
Simboli :   Temporali  Nebbia  Neve Forte  Precipitazioni Forti  Vento > 20 kt
SIGMETs :   Varie  Temporali  Ghiacco  Turbolenza  Onda orograficha  Ceneri Vulcaniche






- Altitudine del aeroporto : 1071 ft
- Codice IATA : LWO


UKLL - L'viv

ULTIMO METAR :
  • 250030Z 20003MPS CAVOK 01/M02 Q1011 R13/CLRD// TEMPO 1000 FZRA BKN002 BKN017CB

METARs OBSOLETI :
  • 250000Z 20003MPS CAVOK 01/M02 Q1011 R13/D TEMPO 1000 FZRA BKN002 BKN017CB
  • 242330Z 20002MPS CAVOK 01/M01 Q1012 R13/D NOSIG
  • 242300Z 21002MPS CAVOK 01/M02 Q1012 R13/D NOSIG
  • 242230Z 21002MPS CAVOK 01/M02 Q1013 R13/CLRD// NOSIG
  • 242200Z 17001MPS CAVOK 01/M01 Q1013 R31/CLRD// NOSIG

TAF COR TAF UKLL
Valido dal 25 a 00 ore il 26 a 00 ore UTC


242312Z 2500/2524 19005MPS 3000 BR BKN005 TX06/2515Z TNM00/2503Z
TEMPO 2500/2507 1000 FZRASN BKN002 BKN017CB
BECMG 2507/2508 21005G10MPS 5000 BR BKN010
TEMPO 2508/2524 23007G14MPS 2100 -SHRA BKN007 BKN017CB



MetMap, La meteo Aeronautica in un colpo d'occhio ! - Copyright ORBIFLY Dicembre 2007 - Disclaimer

ORBIFLY MET'MAP TEAM :

Programmazione e sviluppo : Alexandra Zaïnal
Concezione : Baudouin d'Aumeries
Aiuto per la programmazione : Marc-Olivier Méhu
Supporto tecnico e logistico : Manuel Goepfert
Aiuto per la traduzione : Arnaldo La Scala

Contatto : metmap@orbifly.com




FONTI E CREDITI :

   NOAA